createdAt,value
2022-09-06T00:00:29.280Z,90.56
2022-09-06T00:02:57.918Z,91.17
2022-09-06T00:05:25.760Z,91.60
2022-09-06T00:07:53.899Z,91.83
2022-09-06T00:10:21.713Z,92.21
2022-09-06T00:12:49.605Z,92.75
2022-09-06T00:15:18.095Z,93.05
2022-09-06T00:17:45.728Z,93.19
2022-09-06T00:20:13.428Z,93.48
2022-09-06T00:22:41.358Z,93.59
2022-09-06T00:25:10.316Z,93.98
2022-09-06T00:27:37.996Z,94.29
2022-09-06T00:30:06.446Z,94.55
2022-09-06T00:32:34.232Z,94.86
2022-09-06T00:35:01.868Z,95.23
2022-09-06T00:37:29.545Z,95.12
2022-09-06T00:39:57.294Z,95.22
2022-09-06T00:42:25.110Z,95.58
2022-09-06T00:44:52.959Z,95.82
2022-09-06T00:47:20.827Z,96.29
2022-09-06T00:49:53.699Z,96.90
2022-09-06T00:52:23.298Z,96.90
2022-09-06T00:54:51.769Z,97.31
2022-09-06T00:57:20.181Z,97.86
2022-09-06T00:59:48.529Z,98.23
2022-09-06T01:02:16.342Z,98.40
2022-09-06T01:04:48.175Z,98.67
2022-09-06T01:07:18.900Z,99.00
2022-09-06T01:10:01.826Z,99.42
2022-09-06T01:13:07.427Z,99.51
2022-09-06T01:16:09.471Z,99.73
2022-09-06T01:18:46.224Z,99.56
2022-09-06T01:21:47.786Z,99.87
2022-09-06T01:24:29.166Z,99.91
2022-09-06T01:27:51.055Z,100.00
2022-09-06T01:30:19.682Z,100.00
2022-09-06T01:32:50.163Z,100.00
2022-09-06T01:35:39.095Z,100.00
2022-09-06T01:38:08.771Z,100.00
2022-09-06T01:40:36.731Z,100.00
2022-09-06T01:43:10.956Z,100.00
2022-09-06T01:46:17.127Z,100.00
2022-09-06T01:48:51.058Z,100.00
2022-09-06T01:51:46.177Z,100.00
2022-09-06T01:54:39.136Z,100.00
2022-09-06T01:57:45.263Z,100.00
2022-09-06T02:00:17.233Z,100.00
2022-09-06T02:02:54.016Z,100.00
2022-09-06T02:05:34.165Z,100.00
2022-09-06T02:08:09.806Z,100.00
2022-09-06T02:10:43.052Z,100.00
2022-09-06T02:13:14.378Z,100.00
2022-09-06T02:15:50.404Z,100.00
2022-09-06T02:18:24.541Z,100.00
2022-09-06T02:20:56.068Z,100.00
2022-09-06T02:23:27.626Z,100.00
2022-09-06T02:26:01.725Z,100.00
2022-09-06T02:28:29.650Z,100.00
2022-09-06T02:31:07.211Z,100.00
2022-09-06T02:33:35.957Z,100.00
2022-09-06T02:36:07.238Z,100.00
2022-09-06T02:38:38.882Z,100.00
2022-09-06T02:41:09.257Z,100.00
2022-09-06T02:43:37.252Z,100.00
2022-09-06T02:46:05.020Z,100.00
2022-09-06T02:48:32.745Z,100.00
2022-09-06T02:51:07.785Z,100.00
2022-09-06T02:53:36.341Z,100.00
2022-09-06T02:56:04.630Z,100.00
2022-09-06T02:58:32.338Z,100.00
2022-09-06T03:01:00.161Z,100.00
2022-09-06T03:03:28.522Z,100.00
2022-09-06T03:05:56.708Z,100.00
2022-09-06T03:08:33.440Z,100.00
2022-09-06T03:11:01.664Z,100.00
2022-09-06T03:13:30.098Z,100.00
2022-09-06T03:15:59.972Z,100.00
2022-09-06T03:18:30.127Z,100.00
2022-09-06T03:20:58.690Z,100.00
2022-09-06T03:23:28.892Z,100.00
2022-09-06T03:25:56.845Z,100.00
2022-09-06T03:28:25.250Z,100.00
2022-09-06T03:30:53.752Z,100.00
2022-09-06T03:33:21.777Z,100.00
2022-09-06T03:35:52.289Z,100.00
2022-09-06T03:38:20.984Z,100.00
2022-09-06T03:40:49.349Z,100.00
2022-09-06T03:43:18.403Z,100.00
2022-09-06T03:45:52.743Z,100.00
2022-09-06T03:48:22.789Z,100.00
2022-09-06T03:50:53.069Z,100.00
2022-09-06T03:53:22.645Z,100.00
2022-09-06T03:55:53.219Z,100.00
2022-09-06T03:58:22.627Z,100.00
2022-09-06T04:01:00.309Z,100.00
2022-09-06T04:03:28.042Z,100.00
2022-09-06T04:05:55.826Z,100.00
2022-09-06T04:08:23.498Z,100.00
2022-09-06T04:10:54.252Z,100.00
2022-09-06T04:13:23.427Z,100.00
2022-09-06T04:15:52.717Z,100.00
2022-09-06T04:18:21.677Z,100.00
2022-09-06T04:20:51.943Z,100.00
2022-09-06T04:23:20.747Z,100.00
2022-09-06T04:25:50.661Z,100.00
2022-09-06T04:28:19.360Z,100.00
2022-09-06T04:31:13.619Z,100.00
2022-09-06T04:33:41.627Z,100.00
2022-09-06T04:36:11.619Z,100.00
2022-09-06T04:38:42.273Z,100.00
2022-09-06T04:41:12.466Z,100.00
2022-09-06T04:43:40.111Z,100.00
2022-09-06T04:46:28.924Z,100.00
2022-09-06T04:48:57.764Z,100.00
2022-09-06T04:51:25.741Z,100.00
2022-09-06T04:53:53.645Z,100.00
2022-09-06T04:56:23.625Z,100.00
2022-09-06T04:58:53.352Z,100.00
2022-09-06T05:01:22.631Z,100.00
2022-09-06T05:03:53.968Z,100.00
2022-09-06T05:06:25.165Z,100.00
2022-09-06T05:08:52.987Z,100.00
2022-09-06T05:11:20.734Z,100.00
2022-09-06T05:13:50.355Z,100.00
2022-09-06T05:16:18.564Z,100.00
2022-09-06T05:18:46.518Z,100.00
2022-09-06T05:21:14.227Z,100.00
2022-09-06T05:23:42.349Z,100.00
2022-09-06T05:26:10.069Z,100.00
2022-09-06T05:28:38.182Z,100.00
2022-09-06T05:31:23.987Z,100.00
2022-09-06T05:33:53.328Z,100.00
2022-09-06T05:36:23.506Z,100.00
2022-09-06T05:38:52.024Z,100.00
2022-09-06T05:41:20.699Z,100.00
2022-09-06T05:43:49.045Z,100.00
2022-09-06T05:46:17.759Z,100.00
2022-09-06T05:48:52.895Z,100.00
2022-09-06T05:51:20.607Z,100.00
2022-09-06T05:53:48.681Z,100.00
2022-09-06T05:56:17.913Z,100.00
2022-09-06T05:58:45.575Z,100.00
2022-09-06T06:01:21.822Z,100.00
2022-09-06T06:03:57.296Z,100.00
2022-09-06T06:06:27.270Z,100.00
2022-09-06T06:08:56.398Z,100.00
2022-09-06T06:11:26.008Z,100.00
2022-09-06T06:13:54.206Z,100.00
2022-09-06T06:16:23.652Z,99.76
2022-09-06T06:18:52.830Z,99.64
2022-09-06T06:21:23.549Z,99.51
2022-09-06T06:23:53.742Z,97.84
2022-09-06T06:26:22.508Z,97.31
2022-09-06T06:28:51.630Z,96.37
2022-09-06T06:31:22.511Z,97.15
2022-09-06T06:33:50.758Z,96.42
2022-09-06T06:36:21.881Z,96.12
2022-09-06T06:38:51.870Z,95.97
2022-09-06T06:41:24.050Z,95.21
2022-09-06T06:43:57.149Z,93.83
2022-09-06T06:46:28.487Z,93.00
2022-09-06T06:48:56.175Z,93.33
2022-09-06T06:51:26.641Z,92.37
2022-09-06T06:53:56.813Z,92.25
2022-09-06T06:56:28.572Z,91.46
2022-09-06T06:58:58.785Z,88.40
2022-09-06T07:01:28.686Z,87.91
2022-09-06T07:03:56.796Z,87.48
2022-09-06T07:09:18.238Z,86.37
2022-09-06T07:11:48.867Z,84.65
2022-09-06T07:14:18.458Z,82.89
2022-09-06T07:16:46.633Z,82.29
2022-09-06T07:22:04.609Z,82.30
2022-09-06T07:24:33.617Z,81.22
2022-09-06T07:29:48.879Z,81.45
2022-09-06T07:32:16.746Z,80.04
2022-09-06T07:34:44.493Z,79.80
2022-09-06T07:37:12.125Z,79.37
2022-09-06T07:39:40.017Z,78.34
2022-09-06T07:42:08.061Z,77.32
2022-09-06T07:44:35.821Z,78.06
2022-09-06T07:55:29.741Z,75.60
2022-09-06T07:57:57.432Z,75.02
2022-09-06T08:00:25.517Z,75.01
2022-09-06T08:02:53.295Z,75.24
2022-09-06T08:10:56.396Z,72.06
2022-09-06T08:13:24.194Z,71.44
2022-09-06T08:16:12.533Z,70.94
2022-09-06T08:18:40.382Z,70.25
2022-09-06T08:21:14.041Z,68.25
2022-09-06T08:23:48.930Z,67.57
2022-09-06T08:26:18.024Z,66.71
2022-09-06T08:28:45.733Z,67.82
2022-09-06T08:31:15.921Z,66.13
2022-09-06T08:33:44.786Z,65.09
2022-09-06T08:36:12.748Z,64.61
2022-09-06T08:38:41.000Z,63.73
2022-09-06T08:41:31.581Z,63.49
2022-09-06T08:46:59.691Z,62.08
2022-09-06T08:49:31.640Z,61.79
2022-09-06T08:52:27.676Z,63.05
2022-09-06T08:55:34.144Z,62.67
2022-09-06T08:58:39.195Z,62.54
2022-09-06T09:01:14.289Z,61.48
2022-09-06T09:03:43.697Z,60.86
2022-09-06T09:06:11.653Z,58.99
2022-09-06T09:08:48.141Z,58.92
2022-09-06T09:11:20.452Z,59.55
2022-09-06T09:13:55.783Z,58.13
2022-09-06T09:16:24.208Z,58.47
2022-09-06T09:19:04.138Z,58.20
2022-09-06T09:21:36.477Z,58.57
2022-09-06T09:24:07.330Z,57.76
2022-09-06T09:26:52.017Z,57.43
2022-09-06T09:29:23.928Z,55.88
2022-09-06T09:31:56.025Z,55.57
2022-09-06T09:34:36.280Z,55.59
2022-09-06T09:40:07.205Z,53.97
2022-09-06T09:42:37.693Z,54.27
2022-09-06T09:45:19.818Z,53.74
2022-09-06T09:47:47.909Z,54.15
2022-09-06T09:50:31.108Z,53.23
2022-09-06T09:53:11.200Z,53.47
2022-09-06T09:55:40.023Z,52.90
2022-09-06T09:58:18.943Z,52.85
2022-09-06T10:00:46.709Z,51.62
2022-09-06T10:03:17.512Z,52.75
2022-09-06T10:06:02.164Z,52.53
2022-09-06T10:08:33.455Z,52.47
2022-09-06T10:11:01.436Z,52.49
2022-09-06T10:13:30.282Z,52.38
2022-09-06T10:16:03.195Z,51.45
2022-09-06T10:18:41.557Z,50.74
2022-09-06T10:21:12.836Z,51.11
2022-09-06T10:24:27.808Z,50.35
2022-09-06T10:26:59.689Z,49.62
2022-09-06T10:29:27.294Z,50.36
2022-09-06T10:32:31.122Z,50.09
2022-09-06T10:35:30.412Z,50.15
2022-09-06T10:38:20.082Z,50.58
2022-09-06T10:41:15.076Z,50.78
2022-09-06T10:44:08.919Z,49.97
2022-09-06T10:46:40.553Z,49.43
2022-09-06T10:49:15.499Z,49.32
2022-09-06T10:51:59.453Z,49.51
2022-09-06T10:54:33.527Z,50.16
2022-09-06T10:57:09.348Z,49.38
2022-09-06T11:00:13.696Z,48.97
2022-09-06T11:05:53.335Z,50.17
2022-09-06T11:11:26.412Z,50.04
2022-09-06T11:13:54.065Z,49.98
2022-09-06T11:16:39.682Z,49.93
2022-09-06T11:19:17.771Z,49.73
2022-09-06T11:21:59.268Z,49.61
2022-09-06T11:24:43.772Z,49.82
2022-09-06T11:27:28.079Z,49.84
2022-09-06T11:29:58.047Z,49.81
2022-09-06T11:32:33.322Z,49.64
2022-09-06T11:35:07.316Z,48.79
2022-09-06T11:37:45.303Z,49.35
2022-09-06T11:40:29.350Z,48.75
2022-09-06T11:42:59.482Z,49.38
2022-09-06T11:45:44.802Z,48.86
2022-09-06T11:48:25.422Z,49.24
2022-09-06T11:51:03.778Z,49.56
2022-09-06T11:53:36.269Z,48.51
2022-09-06T11:56:03.858Z,48.42
2022-09-06T11:58:53.675Z,48.25
2022-09-06T12:01:21.394Z,48.32
2022-09-06T12:04:05.942Z,48.30
2022-09-06T12:06:40.883Z,48.85
2022-09-06T12:09:28.725Z,48.84
2022-09-06T12:11:58.022Z,48.61
2022-09-06T12:14:28.105Z,48.22
2022-09-06T12:16:55.862Z,48.76
2022-09-06T12:19:46.627Z,49.14
2022-09-06T12:22:26.554Z,49.71
2022-09-06T12:24:59.891Z,48.69
2022-09-06T12:27:53.073Z,48.33
2022-09-06T12:30:37.268Z,48.17
2022-09-06T12:33:14.446Z,47.38
2022-09-06T12:35:57.909Z,47.18
2022-09-06T12:38:26.249Z,48.26
2022-09-06T12:40:58.683Z,48.64
2022-09-06T12:43:27.230Z,48.99
2022-09-06T12:45:55.078Z,49.28
2022-09-06T12:48:31.780Z,48.61
2022-09-06T12:51:09.476Z,48.63
2022-09-06T12:53:37.381Z,49.05
2022-09-06T12:56:14.082Z,48.24
2022-09-06T12:58:41.784Z,48.90
2022-09-06T13:01:33.761Z,48.86
2022-09-06T13:04:09.094Z,48.53
2022-09-06T13:06:43.495Z,48.13
2022-09-06T13:09:15.486Z,47.51
2022-09-06T13:11:47.145Z,47.71
2022-09-06T13:14:21.725Z,47.33
2022-09-06T13:16:52.240Z,47.14
2022-09-06T13:19:35.667Z,47.31
2022-09-06T13:22:08.594Z,47.84
2022-09-06T13:24:36.705Z,46.89
2022-09-06T13:27:32.634Z,46.70
2022-09-06T13:30:09.496Z,47.16
2022-09-06T13:32:46.784Z,47.24
2022-09-06T13:35:24.110Z,48.13
2022-09-06T13:37:51.909Z,47.40
2022-09-06T13:41:11.511Z,47.73
2022-09-06T13:43:44.050Z,47.49
2022-09-06T13:46:12.199Z,47.35
2022-09-06T13:48:40.609Z,47.17
2022-09-06T13:51:09.824Z,47.29
2022-09-06T13:53:37.543Z,47.11
2022-09-06T13:56:08.708Z,46.98
2022-09-06T13:58:37.076Z,47.72
2022-09-06T14:01:10.098Z,47.56
2022-09-06T14:03:40.867Z,47.56
2022-09-06T14:06:10.110Z,47.84
2022-09-06T14:09:03.312Z,47.14
2022-09-06T14:11:27.487Z,47.50
2022-09-06T14:13:55.317Z,47.95
2022-09-06T14:16:23.446Z,47.85
2022-09-06T14:18:52.148Z,48.18
2022-09-06T14:21:20.505Z,47.86
2022-09-06T14:23:51.105Z,48.03
2022-09-06T14:26:21.186Z,47.46
2022-09-06T14:28:50.206Z,48.05
2022-09-06T14:31:23.497Z,48.10
2022-09-06T14:33:51.986Z,48.55
2022-09-06T14:36:23.041Z,48.62
2022-09-06T14:38:51.073Z,48.95
2022-09-06T14:41:20.261Z,48.59
2022-09-06T14:43:51.184Z,48.79
2022-09-06T14:46:22.104Z,49.04
2022-09-06T14:49:00.267Z,49.29
2022-09-06T14:51:30.277Z,50.09
2022-09-06T14:54:02.042Z,49.85
2022-09-06T14:56:30.447Z,49.97
2022-09-06T14:58:59.978Z,50.53
2022-09-06T15:01:35.595Z,50.50
2022-09-06T15:04:08.998Z,50.52
2022-09-06T15:06:40.391Z,50.51
2022-09-06T15:09:10.266Z,50.94
2022-09-06T15:11:43.876Z,51.20
2022-09-06T15:14:17.898Z,51.10
2022-09-06T15:16:48.979Z,51.64
2022-09-06T15:19:20.138Z,51.30
2022-09-06T15:21:47.936Z,51.90
2022-09-06T15:24:16.268Z,50.91
2022-09-06T15:26:44.328Z,50.77
2022-09-06T15:29:13.467Z,51.06
2022-09-06T15:31:42.650Z,51.25
2022-09-06T15:34:12.276Z,50.97
2022-09-06T15:36:40.002Z,51.68
2022-09-06T15:39:07.925Z,51.07
2022-09-06T15:41:37.379Z,51.21
2022-09-06T15:44:13.986Z,51.04
2022-09-06T15:46:58.299Z,51.38
2022-09-06T15:49:31.959Z,51.87
2022-09-06T15:52:02.376Z,52.12
2022-09-06T15:54:49.037Z,51.99
2022-09-06T15:57:17.731Z,52.35
2022-09-06T15:59:47.000Z,53.00
2022-09-06T16:02:14.931Z,53.00
2022-09-06T16:04:42.970Z,52.65
2022-09-06T16:07:11.685Z,53.19
2022-09-06T16:09:40.264Z,53.41
2022-09-06T16:12:09.273Z,53.96
2022-09-06T16:14:37.711Z,53.98
2022-09-06T16:17:05.653Z,54.05
2022-09-06T16:19:33.816Z,54.62
2022-09-06T16:22:02.584Z,54.68
2022-09-06T16:24:30.631Z,55.03
2022-09-06T16:26:59.218Z,54.87
2022-09-06T16:29:27.038Z,55.24
2022-09-06T16:31:59.830Z,55.40
2022-09-06T16:34:28.033Z,55.37
2022-09-06T16:36:57.113Z,55.89
2022-09-06T16:39:25.046Z,56.03
2022-09-06T16:41:53.105Z,56.49
2022-09-06T16:44:20.948Z,56.65
2022-09-06T16:46:50.073Z,56.82
2022-09-06T16:49:19.484Z,56.88
2022-09-06T16:51:49.580Z,56.98
2022-09-06T16:54:18.867Z,57.54
2022-09-06T16:56:46.594Z,57.34
2022-09-06T16:59:17.571Z,57.34
2022-09-06T17:01:46.287Z,57.87
2022-09-06T17:04:15.046Z,58.12
2022-09-06T17:06:44.884Z,58.43
2022-09-06T17:09:15.909Z,58.84
2022-09-06T17:11:43.763Z,59.38
2022-09-06T17:14:11.635Z,60.17
2022-09-06T17:16:57.934Z,60.77
2022-09-06T17:19:26.023Z,60.92
2022-09-06T17:21:54.150Z,61.40
2022-09-06T17:24:22.673Z,61.77
2022-09-06T17:26:50.510Z,62.04
2022-09-06T17:29:19.541Z,62.42
2022-09-06T17:31:48.127Z,63.00
2022-09-06T17:34:16.743Z,63.20
2022-09-06T17:36:44.533Z,63.43
2022-09-06T17:39:15.806Z,63.61
2022-09-06T17:41:46.677Z,63.92
2022-09-06T17:44:17.020Z,64.09
2022-09-06T17:47:02.612Z,63.85
2022-09-06T17:49:31.062Z,64.04
2022-09-06T17:51:59.001Z,63.84
2022-09-06T17:54:28.019Z,64.21
2022-09-06T17:56:55.836Z,64.22
2022-09-06T17:59:23.577Z,64.41
2022-09-06T18:01:52.538Z,64.68
2022-09-06T18:04:20.365Z,64.77
2022-09-06T18:06:48.273Z,64.99
2022-09-06T18:09:17.918Z,64.97
2022-09-06T18:11:47.090Z,65.28
2022-09-06T18:14:17.598Z,64.89
2022-09-06T18:16:47.975Z,65.16
2022-09-06T18:19:17.739Z,65.18
2022-09-06T18:21:46.526Z,64.79
2022-09-06T18:24:15.315Z,65.25
2022-09-06T18:26:44.638Z,65.11
2022-09-06T18:29:15.065Z,65.17
2022-09-06T18:31:43.857Z,64.92
2022-09-06T18:34:12.490Z,65.16
2022-09-06T18:36:40.333Z,65.16
2022-09-06T18:39:08.369Z,65.16
2022-09-06T18:41:54.629Z,65.23
2022-09-06T18:44:23.170Z,65.00
2022-09-06T18:46:55.823Z,64.99
2022-09-06T18:49:24.402Z,65.08
2022-09-06T18:51:52.205Z,65.22
2022-09-06T18:54:20.841Z,65.36
2022-09-06T18:56:50.069Z,65.58
2022-09-06T18:59:18.088Z,65.73
2022-09-06T19:01:46.604Z,65.68
2022-09-06T19:04:14.795Z,66.02
2022-09-06T19:06:44.071Z,66.48
2022-09-06T19:09:14.736Z,67.05
2022-09-06T19:11:45.613Z,66.82
2022-09-06T19:14:13.924Z,67.41
2022-09-06T19:16:42.294Z,67.62
2022-09-06T19:19:11.868Z,68.18
2022-09-06T19:21:42.281Z,68.38
2022-09-06T19:24:12.301Z,68.99
2022-09-06T19:26:42.222Z,69.67
2022-09-06T19:29:17.277Z,70.20
2022-09-06T19:31:47.087Z,70.49
2022-09-06T19:34:16.238Z,70.93
2022-09-06T19:36:45.017Z,71.60
2022-09-06T19:39:15.916Z,72.03
2022-09-06T19:41:46.621Z,72.49
2022-09-06T19:44:16.616Z,72.82
2022-09-06T19:46:46.833Z,73.36
2022-09-06T19:49:17.001Z,73.77
2022-09-06T19:51:46.804Z,73.81
2022-09-06T19:54:16.224Z,73.86
2022-09-06T19:56:44.938Z,73.92
2022-09-06T19:59:14.434Z,74.08
2022-09-06T20:01:44.410Z,74.29
2022-09-06T20:04:13.924Z,74.37
2022-09-06T20:06:42.051Z,74.19
2022-09-06T20:09:10.886Z,74.49
2022-09-06T20:11:40.895Z,74.35
2022-09-06T20:14:09.949Z,74.49
2022-09-06T20:16:41.464Z,74.74
2022-09-06T20:19:12.340Z,74.81
2022-09-06T20:21:40.720Z,74.83
2022-09-06T20:24:09.054Z,75.03
2022-09-06T20:26:37.830Z,75.63
2022-09-06T20:29:06.676Z,76.05
2022-09-06T20:31:36.444Z,76.10
2022-09-06T20:34:06.361Z,76.36
2022-09-06T20:36:34.846Z,76.41
2022-09-06T20:39:03.371Z,76.88
2022-09-06T20:41:31.785Z,76.75
2022-09-06T20:44:00.094Z,76.75
2022-09-06T20:46:31.658Z,76.77
2022-09-06T20:49:03.515Z,76.70
2022-09-06T20:51:33.623Z,76.49
2022-09-06T20:54:03.731Z,76.37
2022-09-06T20:56:35.047Z,76.53
2022-09-06T20:59:06.233Z,76.44
2022-09-06T21:01:36.823Z,76.60
2022-09-06T21:04:07.202Z,76.15
2022-09-06T21:06:38.014Z,76.00
2022-09-06T21:09:08.609Z,76.18
2022-09-06T21:11:37.001Z,76.24
2022-09-06T21:14:05.601Z,76.26
2022-09-06T21:16:33.931Z,76.23
2022-09-06T21:19:04.407Z,76.11
2022-09-06T21:21:34.526Z,76.07
2022-09-06T21:24:04.311Z,75.98
2022-09-06T21:26:33.234Z,76.10
2022-09-06T21:29:01.332Z,76.13
2022-09-06T21:31:36.193Z,76.33
2022-09-06T21:34:08.513Z,76.93
2022-09-06T21:36:39.350Z,76.84
2022-09-06T21:39:09.708Z,77.00
2022-09-06T21:41:39.539Z,77.19
2022-09-06T21:44:09.117Z,77.45
2022-09-06T21:46:38.573Z,77.48
2022-09-06T21:49:11.924Z,77.68
2022-09-06T21:51:40.508Z,77.78
2022-09-06T21:54:09.258Z,77.89
2022-09-06T21:56:38.651Z,78.43
2022-09-06T21:59:07.434Z,78.53
2022-09-06T22:01:36.954Z,78.84
2022-09-06T22:04:06.092Z,79.01
2022-09-06T22:06:35.172Z,79.24
2022-09-06T22:09:11.646Z,79.02
2022-09-06T22:11:41.717Z,79.36
2022-09-06T22:14:11.776Z,79.62
2022-09-06T22:16:40.855Z,79.88
2022-09-06T22:19:09.434Z,80.26
2022-09-06T22:21:38.841Z,80.48
2022-09-06T22:24:09.440Z,80.93
2022-09-06T22:26:38.623Z,81.68
2022-09-06T22:29:08.598Z,82.05
2022-09-06T22:31:37.025Z,82.30
2022-09-06T22:34:06.425Z,82.70
2022-09-06T22:36:34.557Z,82.77
2022-09-06T22:39:02.395Z,83.24
2022-09-06T22:41:32.669Z,83.32
2022-09-06T22:44:01.708Z,83.10
2022-09-06T22:46:30.384Z,83.64
2022-09-06T22:48:58.910Z,83.86
2022-09-06T22:51:26.754Z,84.22
2022-09-06T22:53:54.657Z,84.48
2022-09-06T22:56:22.608Z,84.63
2022-09-06T22:58:50.402Z,84.85
2022-09-06T23:01:18.286Z,85.06
2022-09-06T23:03:46.920Z,85.37
2022-09-06T23:06:14.791Z,85.79
2022-09-06T23:08:43.106Z,85.84
2022-09-06T23:11:13.683Z,86.09
2022-09-06T23:13:45.008Z,86.40
2022-09-06T23:16:15.973Z,86.75
2022-09-06T23:18:44.786Z,86.94
2022-09-06T23:21:21.770Z,87.02
2022-09-06T23:23:50.951Z,87.36
2022-09-06T23:26:21.753Z,87.39
2022-09-06T23:28:57.223Z,87.70
2022-09-06T23:31:27.466Z,87.96
2022-09-06T23:33:57.404Z,88.06
2022-09-06T23:36:26.310Z,88.53
2022-09-06T23:38:55.379Z,88.76
2022-09-06T23:41:23.722Z,89.07
2022-09-06T23:43:51.627Z,89.04
2022-09-06T23:46:19.934Z,89.55
2022-09-06T23:48:47.676Z,89.84
2022-09-06T23:51:15.678Z,89.98
2022-09-06T23:53:43.743Z,90.13
2022-09-06T23:56:12.422Z,90.44
2022-09-06T23:58:40.405Z,90.67
